sensor_id;sensor_type;location;lat;lon;timestamp;P1;durP1;ratioP1;P2;durP2;ratioP2
10729;SDS011;5416;59.258;18.128;2023-05-14T00:00:12;3.83;;;3.72;;
10729;SDS011;5416;59.258;18.128;2023-05-14T00:02:40;4.03;;;3.92;;
10729;SDS011;5416;59.258;18.128;2023-05-14T00:05:07;3.47;;;3.38;;
10729;SDS011;5416;59.258;18.128;2023-05-14T00:07:35;3.78;;;3.67;;
10729;SDS011;5416;59.258;18.128;2023-05-14T00:10:02;3.60;;;3.50;;
10729;SDS011;5416;59.258;18.128;2023-05-14T00:12:31;3.65;;;3.55;;
10729;SDS011;5416;59.258;18.128;2023-05-14T00:14:59;3.78;;;3.67;;
10729;SDS011;5416;59.258;18.128;2023-05-14T00:17:26;3.63;;;3.53;;
10729;SDS011;5416;59.258;18.128;2023-05-14T00:19:53;3.75;;;3.65;;
10729;SDS011;5416;59.258;18.128;2023-05-14T00:22:20;3.55;;;3.45;;
10729;SDS011;5416;59.258;18.128;2023-05-14T00:24:48;3.55;;;3.45;;
10729;SDS011;5416;59.258;18.128;2023-05-14T00:27:15;4.05;;;3.95;;
10729;SDS011;5416;59.258;18.128;2023-05-14T00:29:44;3.60;;;3.50;;
10729;SDS011;5416;59.258;18.128;2023-05-14T00:32:11;4.05;;;3.95;;
10729;SDS011;5416;59.258;18.128;2023-05-14T00:34:38;4.40;;;4.30;;
10729;SDS011;5416;59.258;18.128;2023-05-14T00:37:06;4.22;;;4.13;;
10729;SDS011;5416;59.258;18.128;2023-05-14T00:39:33;4.03;;;3.92;;
10729;SDS011;5416;59.258;18.128;2023-05-14T00:42:00;4.15;;;4.05;;
10729;SDS011;5416;59.258;18.128;2023-05-14T00:44:27;4.25;;;4.15;;
10729;SDS011;5416;59.258;18.128;2023-05-14T00:46:56;4.60;;;4.40;;
10729;SDS011;5416;59.258;18.128;2023-05-14T00:49:24;4.30;;;4.20;;
10729;SDS011;5416;59.258;18.128;2023-05-14T00:51:51;4.07;;;3.97;;
10729;SDS011;5416;59.258;18.128;2023-05-14T00:54:19;3.92;;;3.83;;
10729;SDS011;5416;59.258;18.128;2023-05-14T00:56:47;3.47;;;3.38;;
10729;SDS011;5416;59.258;18.128;2023-05-14T00:59:14;3.47;;;3.38;;
10729;SDS011;5416;59.258;18.128;2023-05-14T01:01:42;3.83;;;3.72;;
10729;SDS011;5416;59.258;18.128;2023-05-14T01:04:11;3.83;;;3.72;;
10729;SDS011;5416;59.258;18.128;2023-05-14T01:06:41;3.83;;;3.72;;
10729;SDS011;5416;59.258;18.128;2023-05-14T01:09:13;3.35;;;3.25;;
10729;SDS011;5416;59.258;18.128;2023-05-14T01:11:46;3.80;;;3.70;;
10729;SDS011;5416;59.258;18.128;2023-05-14T01:14:17;3.70;;;3.60;;
10729;SDS011;5416;59.258;18.128;2023-05-14T01:16:46;4.00;;;3.90;;
10729;SDS011;5416;59.258;18.128;2023-05-14T01:19:20;3.95;;;3.85;;
10729;SDS011;5416;59.258;18.128;2023-05-14T01:21:49;3.72;;;3.63;;
10729;SDS011;5416;59.258;18.128;2023-05-14T01:24:16;3.67;;;3.58;;
10729;SDS011;5416;59.258;18.128;2023-05-14T01:26:44;3.97;;;3.88;;
10729;SDS011;5416;59.258;18.128;2023-05-14T01:29:12;4.10;;;4.00;;
10729;SDS011;5416;59.258;18.128;2023-05-14T01:31:42;4.20;;;4.10;;
10729;SDS011;5416;59.258;18.128;2023-05-14T01:34:10;3.92;;;3.83;;
10729;SDS011;5416;59.258;18.128;2023-05-14T01:36:38;4.00;;;3.90;;
10729;SDS011;5416;59.258;18.128;2023-05-14T01:39:08;4.03;;;3.92;;
10729;SDS011;5416;59.258;18.128;2023-05-14T01:41:36;4.20;;;4.10;;
10729;SDS011;5416;59.258;18.128;2023-05-14T01:44:04;4.20;;;4.10;;
10729;SDS011;5416;59.258;18.128;2023-05-14T01:46:31;3.70;;;3.60;;
10729;SDS011;5416;59.258;18.128;2023-05-14T01:48:59;3.33;;;3.22;;
10729;SDS011;5416;59.258;18.128;2023-05-14T01:51:26;3.53;;;3.42;;
10729;SDS011;5416;59.258;18.128;2023-05-14T01:53:53;3.78;;;3.67;;
10729;SDS011;5416;59.258;18.128;2023-05-14T01:56:22;3.50;;;3.40;;
10729;SDS011;5416;59.258;18.128;2023-05-14T01:58:49;3.78;;;3.67;;
10729;SDS011;5416;59.258;18.128;2023-05-14T02:01:17;3.75;;;3.65;;
10729;SDS011;5416;59.258;18.128;2023-05-14T02:03:44;4.00;;;3.90;;
10729;SDS011;5416;59.258;18.128;2023-05-14T02:06:11;4.00;;;3.90;;
10729;SDS011;5416;59.258;18.128;2023-05-14T02:08:38;4.07;;;3.97;;
10729;SDS011;5416;59.258;18.128;2023-05-14T02:11:06;4.13;;;4.03;;
10729;SDS011;5416;59.258;18.128;2023-05-14T02:13:34;4.25;;;4.15;;
10729;SDS011;5416;59.258;18.128;2023-05-14T02:16:02;3.97;;;3.88;;
10729;SDS011;5416;59.258;18.128;2023-05-14T02:18:30;3.47;;;3.38;;
10729;SDS011;5416;59.258;18.128;2023-05-14T02:20:57;3.58;;;3.47;;
10729;SDS011;5416;59.258;18.128;2023-05-14T02:23:24;3.20;;;3.10;;
10729;SDS011;5416;59.258;18.128;2023-05-14T02:25:52;3.35;;;3.25;;
10729;SDS011;5416;59.258;18.128;2023-05-14T02:28:20;3.67;;;3.58;;
10729;SDS011;5416;59.258;18.128;2023-05-14T02:30:48;3.50;;;3.40;;
10729;SDS011;5416;59.258;18.128;2023-05-14T02:33:16;3.53;;;3.42;;
10729;SDS011;5416;59.258;18.128;2023-05-14T02:35:43;3.63;;;3.53;;
10729;SDS011;5416;59.258;18.128;2023-05-14T02:38:10;3.83;;;3.72;;
10729;SDS011;5416;59.258;18.128;2023-05-14T02:40:38;4.15;;;4.05;;
10729;SDS011;5416;59.258;18.128;2023-05-14T02:43:05;3.88;;;3.78;;
10729;SDS011;5416;59.258;18.128;2023-05-14T02:45:32;3.83;;;3.72;;
10729;SDS011;5416;59.258;18.128;2023-05-14T02:48:01;4.20;;;4.10;;
10729;SDS011;5416;59.258;18.128;2023-05-14T02:50:28;3.60;;;3.50;;
10729;SDS011;5416;59.258;18.128;2023-05-14T02:52:55;3.95;;;3.85;;
10729;SDS011;5416;59.258;18.128;2023-05-14T02:55:23;3.47;;;3.37;;
10729;SDS011;5416;59.258;18.128;2023-05-14T02:57:50;3.20;;;3.10;;
10729;SDS011;5416;59.258;18.128;2023-05-14T03:00:18;3.22;;;3.13;;
10729;SDS011;5416;59.258;18.128;2023-05-14T03:02:45;3.25;;;3.15;;
10729;SDS011;5416;59.258;18.128;2023-05-14T03:05:14;3.40;;;3.30;;
10729;SDS011;5416;59.258;18.128;2023-05-14T03:07:41;3.65;;;3.55;;
10729;SDS011;5416;59.258;18.128;2023-05-14T03:10:08;3.58;;;3.47;;
10729;SDS011;5416;59.258;18.128;2023-05-14T03:12:36;3.17;;;3.08;;
10729;SDS011;5416;59.258;18.128;2023-05-14T03:15:03;3.92;;;3.83;;
10729;SDS011;5416;59.258;18.128;2023-05-14T03:17:31;3.70;;;3.60;;
10729;SDS011;5416;59.258;18.128;2023-05-14T03:19:58;3.80;;;3.70;;
10729;SDS011;5416;59.258;18.128;2023-05-14T03:22:27;3.88;;;3.78;;
10729;SDS011;5416;59.258;18.128;2023-05-14T03:24:54;3.67;;;3.58;;
10729;SDS011;5416;59.258;18.128;2023-05-14T03:27:22;3.88;;;3.78;;
10729;SDS011;5416;59.258;18.128;2023-05-14T03:29:49;3.63;;;3.53;;
10729;SDS011;5416;59.258;18.128;2023-05-14T03:32:16;4.10;;;4.00;;
10729;SDS011;5416;59.258;18.128;2023-05-14T03:34:44;4.00;;;3.90;;
10729;SDS011;5416;59.258;18.128;2023-05-14T03:37:11;3.88;;;3.78;;
10729;SDS011;5416;59.258;18.128;2023-05-14T03:39:40;4.22;;;4.13;;
10729;SDS011;5416;59.258;18.128;2023-05-14T03:42:07;4.20;;;4.10;;
10729;SDS011;5416;59.258;18.128;2023-05-14T03:44:34;4.50;;;4.40;;
10729;SDS011;5416;59.258;18.128;2023-05-14T03:47:02;4.23;;;4.13;;
10729;SDS011;5416;59.258;18.128;2023-05-14T03:49:29;3.78;;;3.67;;
10729;SDS011;5416;59.258;18.128;2023-05-14T03:51:56;4.07;;;3.97;;
10729;SDS011;5416;59.258;18.128;2023-05-14T03:54:24;3.95;;;3.85;;
10729;SDS011;5416;59.258;18.128;2023-05-14T03:56:53;4.00;;;3.90;;
10729;SDS011;5416;59.258;18.128;2023-05-14T03:59:20;4.00;;;3.90;;
10729;SDS011;5416;59.258;18.128;2023-05-14T04:01:47;4.15;;;4.05;;
10729;SDS011;5416;59.258;18.128;2023-05-14T04:04:15;3.97;;;3.88;;
10729;SDS011;5416;59.258;18.128;2023-05-14T04:06:42;3.67;;;3.58;;
10729;SDS011;5416;59.258;18.128;2023-05-14T04:09:09;4.82;;;4.63;;
10729;SDS011;5416;59.258;18.128;2023-05-14T04:11:37;4.93;;;4.72;;
10729;SDS011;5416;59.258;18.128;2023-05-14T04:14:05;4.05;;;3.95;;
10729;SDS011;5416;59.258;18.128;2023-05-14T04:16:33;4.80;;;4.60;;
10729;SDS011;5416;59.258;18.128;2023-05-14T04:19:01;4.15;;;4.05;;
10729;SDS011;5416;59.258;18.128;2023-05-14T04:21:29;5.00;;;4.80;;
10729;SDS011;5416;59.258;18.128;2023-05-14T04:23:56;4.38;;;4.28;;
10729;SDS011;5416;59.258;18.128;2023-05-14T04:26:23;4.88;;;4.68;;
10729;SDS011;5416;59.258;18.128;2023-05-14T04:28:50;4.35;;;4.25;;
10729;SDS011;5416;59.258;18.128;2023-05-14T04:31:19;4.18;;;4.07;;
10729;SDS011;5416;59.258;18.128;2023-05-14T04:33:46;4.55;;;4.45;;
10729;SDS011;5416;59.258;18.128;2023-05-14T04:36:14;4.53;;;4.40;;
10729;SDS011;5416;59.258;18.128;2023-05-14T04:38:41;4.47;;;4.38;;
10729;SDS011;5416;59.258;18.128;2023-05-14T04:41:09;4.13;;;4.03;;
10729;SDS011;5416;59.258;18.128;2023-05-14T04:43:36;4.70;;;4.50;;
10729;SDS011;5416;59.258;18.128;2023-05-14T04:46:03;4.13;;;4.03;;
10729;SDS011;5416;59.258;18.128;2023-05-14T04:48:32;3.85;;;3.75;;
10729;SDS011;5416;59.258;18.128;2023-05-14T04:50:59;5.72;;;5.53;;
10729;SDS011;5416;59.258;18.128;2023-05-14T04:53:26;4.60;;;4.50;;
10729;SDS011;5416;59.258;18.128;2023-05-14T04:55:54;4.47;;;4.37;;
10729;SDS011;5416;59.258;18.128;2023-05-14T04:58:21;4.00;;;3.90;;
10729;SDS011;5416;59.258;18.128;2023-05-14T05:00:48;4.47;;;4.38;;
10729;SDS011;5416;59.258;18.128;2023-05-14T05:03:15;4.20;;;4.10;;
10729;SDS011;5416;59.258;18.128;2023-05-14T05:05:44;4.60;;;4.50;;
10729;SDS011;5416;59.258;18.128;2023-05-14T05:08:11;4.15;;;4.05;;
10729;SDS011;5416;59.258;18.128;2023-05-14T05:10:38;4.10;;;4.00;;
10729;SDS011;5416;59.258;18.128;2023-05-14T05:13:06;4.05;;;3.95;;
10729;SDS011;5416;59.258;18.128;2023-05-14T05:15:33;4.18;;;4.07;;
10729;SDS011;5416;59.258;18.128;2023-05-14T05:18:00;4.80;;;4.60;;
10729;SDS011;5416;59.258;18.128;2023-05-14T05:20:28;4.10;;;4.00;;
10729;SDS011;5416;59.258;18.128;2023-05-14T05:22:56;4.50;;;4.40;;
10729;SDS011;5416;59.258;18.128;2023-05-14T05:25:24;4.20;;;4.10;;
10729;SDS011;5416;59.258;18.128;2023-05-14T05:27:51;4.18;;;4.07;;
10729;SDS011;5416;59.258;18.128;2023-05-14T05:30:18;4.32;;;4.22;;
10729;SDS011;5416;59.258;18.128;2023-05-14T05:32:45;4.07;;;3.97;;
10729;SDS011;5416;59.258;18.128;2023-05-14T05:35:13;4.18;;;4.07;;
10729;SDS011;5416;59.258;18.128;2023-05-14T05:37:41;4.47;;;4.38;;
10729;SDS011;5416;59.258;18.128;2023-05-14T05:40:11;4.05;;;3.95;;
10729;SDS011;5416;59.258;18.128;2023-05-14T05:42:39;4.00;;;3.90;;
10729;SDS011;5416;59.258;18.128;2023-05-14T05:45:07;4.40;;;4.30;;
10729;SDS011;5416;59.258;18.128;2023-05-14T05:47:34;4.07;;;3.97;;
10729;SDS011;5416;59.258;18.128;2023-05-14T05:50:01;4.00;;;3.90;;
10729;SDS011;5416;59.258;18.128;2023-05-14T05:52:29;3.97;;;3.88;;
10729;SDS011;5416;59.258;18.128;2023-05-14T05:54:56;4.07;;;3.97;;
10729;SDS011;5416;59.258;18.128;2023-05-14T05:57:25;3.95;;;3.85;;
10729;SDS011;5416;59.258;18.128;2023-05-14T05:59:52;4.15;;;4.05;;
10729;SDS011;5416;59.258;18.128;2023-05-14T06:02:19;4.00;;;3.90;;
10729;SDS011;5416;59.258;18.128;2023-05-14T06:04:47;4.30;;;4.20;;
10729;SDS011;5416;59.258;18.128;2023-05-14T06:07:14;4.40;;;4.30;;
10729;SDS011;5416;59.258;18.128;2023-05-14T06:09:41;5.00;;;4.80;;
10729;SDS011;5416;59.258;18.128;2023-05-14T06:12:09;4.10;;;4.00;;
10729;SDS011;5416;59.258;18.128;2023-05-14T06:14:37;4.03;;;3.92;;
10729;SDS011;5416;59.258;18.128;2023-05-14T06:17:04;4.22;;;4.13;;
10729;SDS011;5416;59.258;18.128;2023-05-14T06:19:32;4.27;;;4.17;;
10729;SDS011;5416;59.258;18.128;2023-05-14T06:21:59;4.27;;;4.17;;
10729;SDS011;5416;59.258;18.128;2023-05-14T06:24:26;4.00;;;3.90;;
10729;SDS011;5416;59.258;18.128;2023-05-14T06:26:54;3.92;;;3.83;;
10729;SDS011;5416;59.258;18.128;2023-05-14T06:29:21;4.45;;;4.35;;
10729;SDS011;5416;59.258;18.128;2023-05-14T06:31:50;4.03;;;3.92;;
10729;SDS011;5416;59.258;18.128;2023-05-14T06:34:17;4.18;;;4.07;;
10729;SDS011;5416;59.258;18.128;2023-05-14T06:36:45;4.40;;;4.30;;
10729;SDS011;5416;59.258;18.128;2023-05-14T06:39:12;3.90;;;3.80;;
10729;SDS011;5416;59.258;18.128;2023-05-14T06:41:39;4.30;;;4.10;;
10729;SDS011;5416;59.258;18.128;2023-05-14T06:44:07;4.68;;;4.47;;
10729;SDS011;5416;59.258;18.128;2023-05-14T06:46:35;4.00;;;3.90;;
10729;SDS011;5416;59.258;18.128;2023-05-14T06:49:03;4.25;;;4.15;;
10729;SDS011;5416;59.258;18.128;2023-05-14T06:51:31;4.00;;;3.90;;
10729;SDS011;5416;59.258;18.128;2023-05-14T06:53:58;3.70;;;3.60;;
10729;SDS011;5416;59.258;18.128;2023-05-14T06:56:25;3.90;;;3.80;;
10729;SDS011;5416;59.258;18.128;2023-05-14T06:58:53;3.85;;;3.75;;
10729;SDS011;5416;59.258;18.128;2023-05-14T07:01:20;4.05;;;3.95;;
10729;SDS011;5416;59.258;18.128;2023-05-14T07:03:48;4.05;;;3.95;;
10729;SDS011;5416;59.258;18.128;2023-05-14T07:06:16;4.00;;;3.90;;
10729;SDS011;5416;59.258;18.128;2023-05-14T07:08:43;4.18;;;4.07;;
10729;SDS011;5416;59.258;18.128;2023-05-14T07:11:11;3.90;;;3.80;;
10729;SDS011;5416;59.258;18.128;2023-05-14T07:13:38;4.10;;;4.00;;
10729;SDS011;5416;59.258;18.128;2023-05-14T07:16:06;4.50;;;4.40;;
10729;SDS011;5416;59.258;18.128;2023-05-14T07:18:34;4.10;;;4.00;;
10729;SDS011;5416;59.258;18.128;2023-05-14T07:21:01;4.30;;;4.20;;
10729;SDS011;5416;59.258;18.128;2023-05-14T07:23:32;4.07;;;3.97;;
10729;SDS011;5416;59.258;18.128;2023-05-14T07:26:01;4.07;;;3.97;;
10729;SDS011;5416;59.258;18.128;2023-05-14T07:28:28;3.90;;;3.80;;
10729;SDS011;5416;59.258;18.128;2023-05-14T07:30:55;3.90;;;3.80;;
10729;SDS011;5416;59.258;18.128;2023-05-14T07:33:23;3.83;;;3.72;;
10729;SDS011;5416;59.258;18.128;2023-05-14T07:35:50;3.83;;;3.72;;
10729;SDS011;5416;59.258;18.128;2023-05-14T07:38:18;3.80;;;3.70;;
10729;SDS011;5416;59.258;18.128;2023-05-14T07:40:47;3.67;;;3.57;;
10729;SDS011;5416;59.258;18.128;2023-05-14T07:43:14;3.83;;;3.72;;
10729;SDS011;5416;59.258;18.128;2023-05-14T07:45:41;3.50;;;3.40;;
10729;SDS011;5416;59.258;18.128;2023-05-14T07:48:09;3.70;;;3.60;;
10729;SDS011;5416;59.258;18.128;2023-05-14T07:50:36;3.45;;;3.35;;
10729;SDS011;5416;59.258;18.128;2023-05-14T07:53:03;3.47;;;3.38;;
10729;SDS011;5416;59.258;18.128;2023-05-14T07:55:31;3.70;;;3.60;;
10729;SDS011;5416;59.258;18.128;2023-05-14T07:57:59;3.80;;;3.70;;
10729;SDS011;5416;59.258;18.128;2023-05-14T08:00:27;3.55;;;3.45;;
10729;SDS011;5416;59.258;18.128;2023-05-14T08:02:54;3.45;;;3.35;;
10729;SDS011;5416;59.258;18.128;2023-05-14T08:05:22;3.40;;;3.30;;
10729;SDS011;5416;59.258;18.128;2023-05-14T08:07:49;3.10;;;3.00;;
10729;SDS011;5416;59.258;18.128;2023-05-14T08:10:16;3.50;;;3.40;;
10729;SDS011;5416;59.258;18.128;2023-05-14T08:12:43;3.13;;;3.03;;
10729;SDS011;5416;59.258;18.128;2023-05-14T08:15:12;2.70;;;2.60;;
10729;SDS011;5416;59.258;18.128;2023-05-14T08:17:39;2.45;;;2.35;;
10729;SDS011;5416;59.258;18.128;2023-05-14T08:20:08;2.78;;;2.67;;
10729;SDS011;5416;59.258;18.128;2023-05-14T08:22:36;2.72;;;2.63;;
10729;SDS011;5416;59.258;18.128;2023-05-14T08:25:03;2.50;;;2.40;;
10729;SDS011;5416;59.258;18.128;2023-05-14T08:27:31;2.70;;;2.60;;
10729;SDS011;5416;59.258;18.128;2023-05-14T08:29:59;2.63;;;2.53;;
10729;SDS011;5416;59.258;18.128;2023-05-14T08:32:28;2.50;;;2.40;;
10729;SDS011;5416;59.258;18.128;2023-05-14T08:34:55;2.57;;;2.47;;
10729;SDS011;5416;59.258;18.128;2023-05-14T08:37:22;2.60;;;2.50;;
10729;SDS011;5416;59.258;18.128;2023-05-14T08:39:50;2.42;;;2.33;;
10729;SDS011;5416;59.258;18.128;2023-05-14T08:42:18;2.60;;;2.50;;
10729;SDS011;5416;59.258;18.128;2023-05-14T08:44:47;2.43;;;2.33;;
10729;SDS011;5416;59.258;18.128;2023-05-14T08:47:15;2.47;;;2.38;;
10729;SDS011;5416;59.258;18.128;2023-05-14T08:49:45;2.53;;;2.43;;
10729;SDS011;5416;59.258;18.128;2023-05-14T08:52:13;2.60;;;2.50;;
10729;SDS011;5416;59.258;18.128;2023-05-14T08:54:42;2.30;;;2.20;;
10729;SDS011;5416;59.258;18.128;2023-05-14T08:57:09;3.15;;;3.05;;
10729;SDS011;5416;59.258;18.128;2023-05-14T08:59:37;2.90;;;2.80;;
10729;SDS011;5416;59.258;18.128;2023-05-14T09:02:05;2.70;;;2.60;;
10729;SDS011;5416;59.258;18.128;2023-05-14T09:04:32;2.60;;;2.50;;
10729;SDS011;5416;59.258;18.128;2023-05-14T09:07:02;2.90;;;2.80;;
10729;SDS011;5416;59.258;18.128;2023-05-14T09:09:31;3.42;;;3.33;;
10729;SDS011;5416;59.258;18.128;2023-05-14T09:11:59;3.70;;;3.60;;
10729;SDS011;5416;59.258;18.128;2023-05-14T09:14:27;3.35;;;3.25;;
10729;SDS011;5416;59.258;18.128;2023-05-14T09:16:54;3.80;;;3.70;;
10729;SDS011;5416;59.258;18.128;2023-05-14T09:19:22;3.40;;;3.30;;
10729;SDS011;5416;59.258;18.128;2023-05-14T09:21:49;3.15;;;3.05;;
10729;SDS011;5416;59.258;18.128;2023-05-14T09:24:21;3.20;;;3.10;;
10729;SDS011;5416;59.258;18.128;2023-05-14T09:26:49;3.35;;;3.25;;
10729;SDS011;5416;59.258;18.128;2023-05-14T09:29:16;3.70;;;3.60;;
10729;SDS011;5416;59.258;18.128;2023-05-14T09:31:44;3.40;;;3.30;;
10729;SDS011;5416;59.258;18.128;2023-05-14T09:34:11;3.00;;;2.90;;
10729;SDS011;5416;59.258;18.128;2023-05-14T09:36:49;3.28;;;3.17;;
10729;SDS011;5416;59.258;18.128;2023-05-14T09:39:16;3.17;;;3.08;;
10729;SDS011;5416;59.258;18.128;2023-05-14T09:41:45;3.27;;;3.17;;
10729;SDS011;5416;59.258;18.128;2023-05-14T09:44:12;3.50;;;3.40;;
10729;SDS011;5416;59.258;18.128;2023-05-14T09:46:40;3.58;;;3.47;;
10729;SDS011;5416;59.258;18.128;2023-05-14T09:49:07;3.50;;;3.30;;
10729;SDS011;5416;59.258;18.128;2023-05-14T09:51:34;3.33;;;3.23;;
10729;SDS011;5416;59.258;18.128;2023-05-14T09:54:02;3.47;;;3.38;;
10729;SDS011;5416;59.258;18.128;2023-05-14T09:56:31;3.70;;;3.60;;
10729;SDS011;5416;59.258;18.128;2023-05-14T09:59:00;3.20;;;3.10;;
10729;SDS011;5416;59.258;18.128;2023-05-14T10:01:27;2.90;;;2.80;;
10729;SDS011;5416;59.258;18.128;2023-05-14T10:03:55;3.08;;;2.97;;
10729;SDS011;5416;59.258;18.128;2023-05-14T10:06:24;3.00;;;2.90;;
10729;SDS011;5416;59.258;18.128;2023-05-14T10:08:52;3.20;;;3.10;;
10729;SDS011;5416;59.258;18.128;2023-05-14T10:11:21;3.20;;;3.10;;
10729;SDS011;5416;59.258;18.128;2023-05-14T10:13:51;2.97;;;2.88;;
10729;SDS011;5416;59.258;18.128;2023-05-14T10:16:26;3.50;;;3.40;;
10729;SDS011;5416;59.258;18.128;2023-05-14T10:18:55;3.33;;;3.22;;
10729;SDS011;5416;59.258;18.128;2023-05-14T10:21:24;3.20;;;3.10;;
10729;SDS011;5416;59.258;18.128;2023-05-14T10:23:51;2.95;;;2.85;;
10729;SDS011;5416;59.258;18.128;2023-05-14T10:26:18;3.13;;;3.03;;
10729;SDS011;5416;59.258;18.128;2023-05-14T10:28:46;3.28;;;3.17;;
10729;SDS011;5416;59.258;18.128;2023-05-14T10:31:13;3.80;;;3.70;;
10729;SDS011;5416;59.258;18.128;2023-05-14T10:33:49;3.40;;;3.30;;
10729;SDS011;5416;59.258;18.128;2023-05-14T10:36:16;3.33;;;3.22;;
10729;SDS011;5416;59.258;18.128;2023-05-14T10:38:44;3.70;;;3.60;;
10729;SDS011;5416;59.258;18.128;2023-05-14T10:41:13;3.50;;;3.40;;
10729;SDS011;5416;59.258;18.128;2023-05-14T10:43:42;3.30;;;3.20;;
10729;SDS011;5416;59.258;18.128;2023-05-14T10:46:10;3.50;;;3.40;;
10729;SDS011;5416;59.258;18.128;2023-05-14T10:48:38;3.75;;;3.65;;
10729;SDS011;5416;59.258;18.128;2023-05-14T10:51:08;3.60;;;3.50;;
10729;SDS011;5416;59.258;18.128;2023-05-14T10:53:36;3.80;;;3.70;;
10729;SDS011;5416;59.258;18.128;2023-05-14T10:56:08;3.90;;;3.80;;
10729;SDS011;5416;59.258;18.128;2023-05-14T10:58:36;3.72;;;3.63;;
10729;SDS011;5416;59.258;18.128;2023-05-14T11:01:04;3.65;;;3.55;;
10729;SDS011;5416;59.258;18.128;2023-05-14T11:03:37;3.72;;;3.63;;
10729;SDS011;5416;59.258;18.128;2023-05-14T11:06:05;3.50;;;3.40;;
10729;SDS011;5416;59.258;18.128;2023-05-14T11:08:34;3.50;;;3.40;;
10729;SDS011;5416;59.258;18.128;2023-05-14T11:11:02;3.60;;;3.50;;
10729;SDS011;5416;59.258;18.128;2023-05-14T11:13:29;3.70;;;3.60;;
10729;SDS011;5416;59.258;18.128;2023-05-14T11:15:58;3.80;;;3.70;;
10729;SDS011;5416;59.258;18.128;2023-05-14T11:18:27;3.40;;;3.20;;
10729;SDS011;5416;59.258;18.128;2023-05-14T11:20:56;3.60;;;3.50;;
10729;SDS011;5416;59.258;18.128;2023-05-14T11:23:24;3.47;;;3.38;;
10729;SDS011;5416;59.258;18.128;2023-05-14T11:25:53;3.27;;;3.17;;
10729;SDS011;5416;59.258;18.128;2023-05-14T11:28:20;3.30;;;3.20;;
10729;SDS011;5416;59.258;18.128;2023-05-14T11:30:48;3.47;;;3.38;;
10729;SDS011;5416;59.258;18.128;2023-05-14T11:33:16;3.58;;;3.47;;
10729;SDS011;5416;59.258;18.128;2023-05-14T11:35:43;3.20;;;3.10;;
10729;SDS011;5416;59.258;18.128;2023-05-14T11:38:14;3.22;;;3.13;;
10729;SDS011;5416;59.258;18.128;2023-05-14T11:40:42;3.72;;;3.63;;
10729;SDS011;5416;59.258;18.128;2023-05-14T11:43:10;3.63;;;3.53;;
10729;SDS011;5416;59.258;18.128;2023-05-14T11:45:38;3.45;;;3.35;;
10729;SDS011;5416;59.258;18.128;2023-05-14T11:48:14;3.40;;;3.30;;
10729;SDS011;5416;59.258;18.128;2023-05-14T11:50:43;3.42;;;3.33;;
10729;SDS011;5416;59.258;18.128;2023-05-14T11:53:14;3.38;;;3.28;;
10729;SDS011;5416;59.258;18.128;2023-05-14T11:55:42;3.50;;;3.40;;
10729;SDS011;5416;59.258;18.128;2023-05-14T11:58:10;3.40;;;3.30;;
10729;SDS011;5416;59.258;18.128;2023-05-14T12:00:38;3.80;;;3.70;;
10729;SDS011;5416;59.258;18.128;2023-05-14T12:03:05;3.72;;;3.63;;
10729;SDS011;5416;59.258;18.128;2023-05-14T12:05:36;3.78;;;3.67;;
10729;SDS011;5416;59.258;18.128;2023-05-14T12:08:08;3.70;;;3.60;;
10729;SDS011;5416;59.258;18.128;2023-05-14T12:10:45;3.90;;;3.80;;
10729;SDS011;5416;59.258;18.128;2023-05-14T12:13:15;3.92;;;3.80;;
10729;SDS011;5416;59.258;18.128;2023-05-14T12:15:44;4.00;;;3.90;;
10729;SDS011;5416;59.258;18.128;2023-05-14T12:18:12;3.75;;;3.65;;
10729;SDS011;5416;59.258;18.128;2023-05-14T12:20:44;3.67;;;3.58;;
10729;SDS011;5416;59.258;18.128;2023-05-14T12:23:12;3.40;;;3.30;;
10729;SDS011;5416;59.258;18.128;2023-05-14T12:25:39;3.60;;;3.50;;
10729;SDS011;5416;59.258;18.128;2023-05-14T12:28:14;3.70;;;3.60;;
10729;SDS011;5416;59.258;18.128;2023-05-14T12:30:41;3.90;;;3.80;;
10729;SDS011;5416;59.258;18.128;2023-05-14T12:33:09;3.70;;;3.60;;
10729;SDS011;5416;59.258;18.128;2023-05-14T12:35:36;4.07;;;3.97;;
10729;SDS011;5416;59.258;18.128;2023-05-14T12:38:03;4.05;;;3.95;;
10729;SDS011;5416;59.258;18.128;2023-05-14T12:40:30;3.80;;;3.70;;
10729;SDS011;5416;59.258;18.128;2023-05-14T12:42:58;4.18;;;4.07;;
10729;SDS011;5416;59.258;18.128;2023-05-14T12:45:26;3.78;;;3.67;;
10729;SDS011;5416;59.258;18.128;2023-05-14T12:47:54;3.83;;;3.72;;
10729;SDS011;5416;59.258;18.128;2023-05-14T12:50:21;3.80;;;3.70;;
10729;SDS011;5416;59.258;18.128;2023-05-14T12:52:48;3.72;;;3.63;;
10729;SDS011;5416;59.258;18.128;2023-05-14T12:55:15;4.15;;;4.05;;
10729;SDS011;5416;59.258;18.128;2023-05-14T12:57:42;4.18;;;4.07;;
10729;SDS011;5416;59.258;18.128;2023-05-14T13:00:10;3.77;;;3.67;;
10729;SDS011;5416;59.258;18.128;2023-05-14T13:02:39;3.90;;;3.80;;
10729;SDS011;5416;59.258;18.128;2023-05-14T13:05:06;3.97;;;3.88;;
10729;SDS011;5416;59.258;18.128;2023-05-14T13:07:34;4.32;;;4.22;;
10729;SDS011;5416;59.258;18.128;2023-05-14T13:10:01;4.50;;;4.40;;
10729;SDS011;5416;59.258;18.128;2023-05-14T13:12:29;4.35;;;4.25;;
10729;SDS011;5416;59.258;18.128;2023-05-14T13:14:57;4.97;;;4.77;;
10729;SDS011;5416;59.258;18.128;2023-05-14T13:17:24;5.45;;;5.25;;
10729;SDS011;5416;59.258;18.128;2023-05-14T13:19:53;4.80;;;4.60;;
10729;SDS011;5416;59.258;18.128;2023-05-14T13:22:22;4.95;;;4.75;;
10729;SDS011;5416;59.258;18.128;2023-05-14T13:24:50;5.53;;;5.32;;
10729;SDS011;5416;59.258;18.128;2023-05-14T13:27:17;5.28;;;5.07;;
10729;SDS011;5416;59.258;18.128;2023-05-14T13:29:44;4.97;;;4.78;;
10729;SDS011;5416;59.258;18.128;2023-05-14T13:32:11;4.40;;;4.30;;
10729;SDS011;5416;59.258;18.128;2023-05-14T13:34:38;4.90;;;4.70;;
10729;SDS011;5416;59.258;18.128;2023-05-14T13:37:08;4.30;;;4.10;;
10729;SDS011;5416;59.258;18.128;2023-05-14T13:39:35;4.05;;;3.95;;
10729;SDS011;5416;59.258;18.128;2023-05-14T13:42:02;4.50;;;4.38;;
10729;SDS011;5416;59.258;18.128;2023-05-14T13:44:30;4.55;;;4.40;;
10729;SDS011;5416;59.258;18.128;2023-05-14T13:46:57;4.80;;;4.60;;
10729;SDS011;5416;59.258;18.128;2023-05-14T13:49:24;4.25;;;4.15;;
10729;SDS011;5416;59.258;18.128;2023-05-14T13:51:52;4.20;;;4.10;;
10729;SDS011;5416;59.258;18.128;2023-05-14T13:54:20;4.32;;;4.22;;
10729;SDS011;5416;59.258;18.128;2023-05-14T13:56:48;4.72;;;4.53;;
10729;SDS011;5416;59.258;18.128;2023-05-14T13:59:16;4.07;;;3.97;;
10729;SDS011;5416;59.258;18.128;2023-05-14T14:01:44;4.40;;;4.30;;
10729;SDS011;5416;59.258;18.128;2023-05-14T14:04:13;4.37;;;4.27;;
10729;SDS011;5416;59.258;18.128;2023-05-14T14:06:41;4.20;;;4.10;;
10729;SDS011;5416;59.258;18.128;2023-05-14T14:09:08;4.28;;;4.18;;
10729;SDS011;5416;59.258;18.128;2023-05-14T14:11:38;4.70;;;4.50;;
10729;SDS011;5416;59.258;18.128;2023-05-14T14:14:06;4.63;;;4.47;;
10729;SDS011;5416;59.258;18.128;2023-05-14T14:16:33;4.40;;;4.30;;
10729;SDS011;5416;59.258;18.128;2023-05-14T14:19:00;4.20;;;4.10;;
10729;SDS011;5416;59.258;18.128;2023-05-14T14:21:28;4.30;;;4.20;;
10729;SDS011;5416;59.258;18.128;2023-05-14T14:23:55;4.50;;;4.40;;
10729;SDS011;5416;59.258;18.128;2023-05-14T14:26:23;4.70;;;4.50;;
10729;SDS011;5416;59.258;18.128;2023-05-14T14:28:53;4.38;;;4.28;;
10729;SDS011;5416;59.258;18.128;2023-05-14T14:31:20;4.20;;;4.10;;
10729;SDS011;5416;59.258;18.128;2023-05-14T14:33:48;4.10;;;4.00;;
10729;SDS011;5416;59.258;18.128;2023-05-14T14:36:15;4.80;;;4.60;;
10729;SDS011;5416;59.258;18.128;2023-05-14T14:38:42;4.38;;;4.28;;
10729;SDS011;5416;59.258;18.128;2023-05-14T14:41:09;4.28;;;4.07;;
10729;SDS011;5416;59.258;18.128;2023-05-14T14:43:37;4.60;;;4.40;;
10729;SDS011;5416;59.258;18.128;2023-05-14T14:46:06;4.43;;;4.32;;
10729;SDS011;5416;59.258;18.128;2023-05-14T14:48:34;4.30;;;4.20;;
10729;SDS011;5416;59.258;18.128;2023-05-14T14:51:02;4.20;;;4.10;;